createdAt,value
2017-10-13T00:01:46.674Z,2.40
2017-10-13T00:04:14.871Z,2.50
2017-10-13T00:06:42.279Z,2.20
2017-10-13T00:09:10.619Z,2.23
2017-10-13T00:11:38.035Z,2.17
2017-10-13T00:14:06.223Z,2.83
2017-10-13T00:16:33.668Z,2.13
2017-10-13T00:19:01.838Z,2.27
2017-10-13T00:21:30.016Z,2.07
2017-10-13T00:23:58.193Z,2.30
2017-10-13T00:26:26.379Z,2.30
2017-10-13T00:28:53.811Z,2.00
2017-10-13T00:31:21.211Z,2.70
2017-10-13T00:33:48.624Z,2.50
2017-10-13T00:36:16.805Z,2.70
2017-10-13T00:38:44.995Z,2.90
2017-10-13T00:41:12.406Z,3.40
2017-10-13T00:43:40.751Z,3.03
2017-10-13T00:46:08.162Z,2.17
2017-10-13T00:48:36.338Z,3.50
2017-10-13T00:51:04.531Z,2.67
2017-10-13T00:53:31.943Z,2.87
2017-10-13T00:55:59.380Z,2.57
2017-10-13T00:58:26.783Z,2.63
2017-10-13T01:00:54.963Z,2.37
2017-10-13T01:03:22.391Z,2.30
2017-10-13T01:05:49.843Z,2.83
2017-10-13T01:08:17.256Z,3.10
2017-10-13T01:10:44.673Z,2.57
2017-10-13T01:13:12.855Z,2.60
2017-10-13T01:15:41.958Z,3.23
2017-10-13T01:18:09.389Z,3.47
2017-10-13T01:20:36.807Z,2.67
2017-10-13T01:23:04.227Z,2.60
2017-10-13T01:25:31.659Z,3.57
2017-10-13T01:27:59.851Z,3.10
2017-10-13T01:30:28.042Z,3.60
2017-10-13T01:32:55.487Z,3.13
2017-10-13T01:35:23.194Z,2.78
2017-10-13T01:37:50.619Z,3.13
2017-10-13T01:40:18.034Z,3.23
2017-10-13T01:42:45.962Z,3.47
2017-10-13T01:45:13.376Z,3.43
2017-10-13T01:47:41.739Z,3.23
2017-10-13T01:50:09.940Z,3.90
2017-10-13T01:52:38.151Z,3.33
2017-10-13T01:55:05.571Z,3.40
2017-10-13T01:57:32.995Z,4.00
2017-10-13T02:00:00.504Z,3.73
2017-10-13T02:02:27.925Z,3.80
2017-10-13T02:04:56.118Z,3.90
2017-10-13T02:07:23.586Z,3.83
2017-10-13T02:09:51.017Z,4.20
2017-10-13T02:12:19.195Z,4.50
2017-10-13T02:14:46.631Z,3.90
2017-10-13T02:17:14.838Z,4.00
2017-10-13T02:19:42.272Z,3.97
2017-10-13T02:22:10.454Z,4.63
2017-10-13T02:24:37.890Z,4.50
2017-10-13T02:27:06.084Z,5.03
2017-10-13T02:29:34.264Z,5.40
2017-10-13T02:32:01.696Z,5.13
2017-10-13T02:34:29.870Z,5.43
2017-10-13T02:36:58.074Z,5.37
2017-10-13T02:39:25.521Z,6.10
2017-10-13T02:41:52.951Z,5.50
2017-10-13T02:44:21.147Z,6.70
2017-10-13T02:46:48.563Z,6.17
2017-10-13T02:49:15.984Z,6.73
2017-10-13T02:51:43.423Z,7.10
2017-10-13T02:54:10.857Z,7.50
2017-10-13T02:56:39.048Z,6.90
2017-10-13T02:59:06.540Z,7.80
2017-10-13T03:01:33.994Z,7.60
2017-10-13T03:04:01.444Z,8.17
2017-10-13T03:06:28.876Z,7.10
2017-10-13T03:08:56.299Z,8.10
2017-10-13T03:11:23.724Z,7.20
2017-10-13T03:13:51.144Z,7.83
2017-10-13T03:16:18.566Z,7.97
2017-10-13T03:18:46.792Z,7.83
2017-10-13T03:21:14.202Z,7.37
2017-10-13T03:23:43.328Z,9.03
2017-10-13T03:26:11.527Z,7.20
2017-10-13T03:28:38.961Z,7.37
2017-10-13T03:31:07.352Z,7.63
2017-10-13T03:33:34.807Z,7.50
2017-10-13T03:36:02.275Z,7.57
2017-10-13T03:38:29.719Z,8.33
2017-10-13T03:40:57.151Z,7.40
2017-10-13T03:43:25.336Z,8.73
2017-10-13T03:45:52.746Z,7.90
2017-10-13T03:48:20.935Z,6.63
2017-10-13T03:50:49.144Z,7.60
2017-10-13T03:53:16.563Z,7.53
2017-10-13T03:55:44.783Z,7.30
2017-10-13T03:58:12.198Z,7.53
2017-10-13T04:00:40.412Z,8.47
2017-10-13T04:03:07.823Z,7.77
2017-10-13T04:05:35.239Z,7.87
2017-10-13T04:08:02.683Z,7.17
2017-10-13T04:10:30.125Z,7.17
2017-10-13T04:12:58.318Z,7.90
2017-10-13T04:15:25.762Z,7.97
2017-10-13T04:17:53.195Z,8.90
2017-10-13T04:20:21.399Z,7.70
2017-10-13T04:22:48.858Z,7.33
2017-10-13T04:25:16.266Z,7.83
2017-10-13T04:27:44.789Z,7.30
2017-10-13T04:30:12.206Z,7.57
2017-10-13T04:32:40.419Z,8.00
2017-10-13T04:35:07.828Z,7.73
2017-10-13T04:37:36.016Z,6.63
2017-10-13T04:40:04.251Z,8.17
2017-10-13T04:42:31.683Z,7.93
2017-10-13T04:44:59.098Z,7.57
2017-10-13T04:47:27.313Z,7.63
2017-10-13T04:49:54.739Z,7.80
2017-10-13T04:52:22.943Z,7.93
2017-10-13T04:54:50.376Z,7.90
2017-10-13T04:57:17.787Z,8.33
2017-10-13T04:59:45.213Z,8.20
2017-10-13T05:02:12.642Z,8.47
2017-10-13T05:04:40.067Z,8.07
2017-10-13T05:07:07.483Z,7.20
2017-10-13T05:09:34.938Z,8.00
2017-10-13T05:12:02.338Z,7.73
2017-10-13T05:14:29.828Z,7.90
2017-10-13T05:16:57.235Z,9.63
2017-10-13T05:19:24.667Z,8.60
2017-10-13T05:21:52.091Z,8.32
2017-10-13T05:24:20.414Z,9.10
2017-10-13T05:26:47.856Z,8.30
2017-10-13T05:29:15.284Z,8.87
2017-10-13T05:31:42.718Z,8.87
2017-10-13T05:34:10.120Z,8.50
2017-10-13T05:36:37.543Z,9.30
2017-10-13T05:39:05.761Z,8.33
2017-10-13T05:41:33.204Z,8.70
2017-10-13T05:44:00.611Z,9.20
2017-10-13T05:46:28.809Z,9.40
2017-10-13T05:48:56.240Z,8.40
2017-10-13T05:51:25.163Z,9.07
2017-10-13T05:53:52.590Z,9.13
2017-10-13T05:56:20.020Z,9.10
2017-10-13T05:58:47.449Z,9.70
2017-10-13T06:01:16.039Z,9.10
2017-10-13T06:03:43.430Z,9.17
2017-10-13T06:06:10.851Z,9.73
2017-10-13T06:08:38.278Z,9.83
2017-10-13T06:11:05.687Z,9.07
2017-10-13T06:13:33.121Z,9.63
2017-10-13T06:16:00.569Z,10.20
2017-10-13T06:18:27.975Z,9.53
2017-10-13T06:20:56.190Z,10.37
2017-10-13T06:23:23.609Z,8.93
2017-10-13T06:25:51.026Z,9.80
2017-10-13T06:28:18.437Z,9.90
2017-10-13T06:30:46.652Z,8.87
2017-10-13T06:33:14.080Z,9.60
2017-10-13T06:35:41.502Z,8.93
2017-10-13T06:38:09.711Z,9.00
2017-10-13T06:40:37.122Z,9.43
2017-10-13T06:43:04.552Z,9.37
2017-10-13T06:45:32.009Z,8.10
2017-10-13T06:47:59.547Z,8.50
2017-10-13T06:50:27.016Z,8.30
2017-10-13T06:52:54.431Z,7.73
2017-10-13T06:55:22.648Z,8.00
2017-10-13T06:57:50.054Z,8.03
2017-10-13T07:00:18.250Z,7.83
2017-10-13T07:02:46.605Z,7.68
2017-10-13T07:05:14.777Z,8.00
2017-10-13T07:07:42.959Z,8.37
2017-10-13T07:10:11.135Z,8.70
2017-10-13T07:12:38.543Z,8.40
2017-10-13T07:15:05.968Z,7.53
2017-10-13T07:17:33.378Z,8.57
2017-10-13T07:20:01.555Z,8.83
2017-10-13T07:22:29.743Z,8.73
2017-10-13T07:24:57.923Z,7.67
2017-10-13T07:27:25.406Z,8.67
2017-10-13T07:29:52.893Z,8.13
2017-10-13T07:32:20.315Z,8.10
2017-10-13T07:34:47.767Z,8.30
2017-10-13T07:37:16.112Z,8.70
2017-10-13T07:39:44.282Z,8.37
2017-10-13T07:42:13.163Z,8.10
2017-10-13T07:44:40.600Z,7.40
2017-10-13T07:47:08.032Z,8.00
2017-10-13T07:49:35.487Z,7.73
2017-10-13T07:52:02.922Z,8.13
2017-10-13T07:54:30.403Z,8.13
2017-10-13T07:56:57.803Z,8.20
2017-10-13T07:59:25.252Z,7.30
2017-10-13T08:01:52.665Z,8.33
2017-10-13T08:04:20.074Z,7.40
2017-10-13T08:06:48.279Z,8.47
2017-10-13T08:09:16.631Z,7.53
2017-10-13T08:11:44.823Z,7.00
2017-10-13T08:14:12.235Z,7.77
2017-10-13T08:16:39.698Z,6.47
2017-10-13T08:19:07.887Z,7.83
2017-10-13T08:21:36.067Z,6.80
2017-10-13T08:24:04.245Z,6.83
2017-10-13T08:26:32.441Z,7.23
2017-10-13T08:28:59.849Z,6.83
2017-10-13T08:31:27.275Z,6.63
2017-10-13T08:33:54.698Z,6.70
2017-10-13T08:36:22.900Z,7.60
2017-10-13T08:38:50.327Z,7.03
2017-10-13T08:41:18.518Z,6.63
2017-10-13T08:43:46.851Z,7.17
2017-10-13T08:46:15.054Z,6.60
2017-10-13T08:48:43.226Z,6.17
2017-10-13T08:51:10.649Z,5.90
2017-10-13T08:53:38.067Z,6.23
2017-10-13T08:56:05.512Z,5.77
2017-10-13T08:58:32.970Z,5.47
2017-10-13T09:01:00.379Z,5.93
2017-10-13T09:03:28.600Z,5.07
2017-10-13T09:05:56.003Z,5.83
2017-10-13T09:08:23.790Z,6.27
2017-10-13T09:10:52.021Z,6.03
2017-10-13T09:13:19.451Z,6.00
2017-10-13T09:15:48.198Z,5.32
2017-10-13T09:18:17.307Z,4.90
2017-10-13T09:20:45.531Z,5.97
2017-10-13T09:23:15.973Z,4.60
2017-10-13T09:25:43.369Z,5.47
2017-10-13T09:28:10.796Z,4.90
2017-10-13T09:30:38.206Z,5.97
2017-10-13T09:33:05.618Z,5.13
2017-10-13T09:35:33.790Z,4.90
2017-10-13T09:38:01.987Z,5.67
2017-10-13T09:40:29.460Z,5.33
2017-10-13T09:42:56.867Z,5.83
2017-10-13T09:45:24.291Z,6.07
2017-10-13T09:47:51.705Z,4.93
2017-10-13T09:50:19.150Z,4.50
2017-10-13T09:52:48.256Z,4.17
2017-10-13T09:55:16.167Z,6.00
2017-10-13T09:57:43.585Z,5.10
2017-10-13T10:00:11.012Z,5.13
2017-10-13T10:02:38.415Z,6.17
2017-10-13T10:05:05.830Z,4.60
2017-10-13T10:07:34.021Z,4.77
2017-10-13T10:10:01.909Z,5.00
2017-10-13T10:12:29.365Z,4.50
2017-10-13T10:14:56.786Z,5.30
2017-10-13T10:17:24.259Z,4.77
2017-10-13T10:19:51.736Z,5.63
2017-10-13T10:22:19.140Z,5.53
2017-10-13T10:24:46.559Z,5.00
2017-10-13T10:27:13.990Z,4.53
2017-10-13T10:29:41.406Z,4.90
2017-10-13T10:32:08.864Z,4.50
2017-10-13T10:34:36.269Z,4.33
2017-10-13T10:37:04.388Z,4.93
2017-10-13T10:39:31.803Z,4.57
2017-10-13T10:41:59.223Z,4.57
2017-10-13T10:44:27.403Z,5.87
2017-10-13T10:46:54.818Z,4.90
2017-10-13T10:49:22.344Z,5.50
2017-10-13T10:51:49.727Z,4.67
2017-10-13T10:54:17.155Z,4.10
2017-10-13T10:56:44.573Z,4.90
2017-10-13T10:59:12.780Z,4.60
2017-10-13T11:01:40.199Z,4.77
2017-10-13T11:04:08.380Z,4.60
2017-10-13T11:06:36.559Z,5.10
2017-10-13T11:09:04.043Z,5.20
2017-10-13T11:11:31.452Z,5.33
2017-10-13T11:13:58.860Z,4.27
2017-10-13T11:16:26.313Z,5.20
2017-10-13T11:18:54.176Z,4.30
2017-10-13T11:21:21.575Z,4.73
2017-10-13T11:23:49.871Z,4.40
2017-10-13T11:26:19.010Z,5.10
2017-10-13T11:28:46.943Z,4.47
2017-10-13T11:31:14.423Z,4.97
2017-10-13T11:33:41.845Z,4.60
2017-10-13T11:36:10.035Z,4.60
2017-10-13T11:38:38.230Z,5.20
2017-10-13T11:41:05.655Z,4.90
2017-10-13T11:43:33.839Z,4.70
2017-10-13T11:46:01.258Z,4.10
2017-10-13T11:48:28.671Z,5.00
2017-10-13T11:50:56.947Z,4.87
2017-10-13T11:53:24.339Z,4.90
2017-10-13T11:55:52.170Z,4.97
2017-10-13T11:58:19.590Z,4.40
2017-10-13T12:00:47.771Z,4.53
2017-10-13T12:03:15.207Z,4.87
2017-10-13T12:05:43.389Z,4.47
2017-10-13T12:08:11.577Z,4.47
2017-10-13T12:10:39.760Z,6.10
2017-10-13T12:13:07.180Z,6.00
2017-10-13T12:15:34.591Z,5.30
2017-10-13T12:18:02.040Z,6.57
2017-10-13T12:20:29.457Z,5.80
2017-10-13T12:22:57.971Z,5.93
2017-10-13T12:25:25.387Z,6.03
2017-10-13T12:27:53.565Z,5.20
2017-10-13T12:30:21.755Z,6.07
2017-10-13T12:32:50.875Z,6.20
2017-10-13T12:35:18.917Z,6.00
2017-10-13T12:37:47.122Z,7.10
2017-10-13T12:40:14.579Z,6.83
2017-10-13T12:42:42.006Z,7.70
2017-10-13T12:45:10.197Z,7.73
2017-10-13T12:47:37.602Z,6.80
2017-10-13T12:50:05.120Z,6.20
2017-10-13T12:52:32.575Z,7.73
2017-10-13T12:54:59.992Z,7.37
2017-10-13T12:57:28.171Z,7.20
2017-10-13T12:59:56.356Z,7.37
2017-10-13T13:02:25.066Z,8.47
2017-10-13T13:04:52.487Z,9.43
2017-10-13T13:07:21.312Z,8.73
2017-10-13T13:09:48.691Z,8.33
2017-10-13T13:12:16.146Z,7.93
2017-10-13T13:14:43.557Z,7.53
2017-10-13T13:17:10.979Z,7.60
2017-10-13T13:19:38.398Z,8.00
2017-10-13T13:22:05.815Z,8.30
2017-10-13T13:24:34.005Z,8.40
2017-10-13T13:27:01.480Z,8.57
2017-10-13T13:29:28.937Z,8.63
2017-10-13T13:31:56.406Z,7.70
2017-10-13T13:34:23.817Z,8.60
2017-10-13T13:36:52.029Z,7.50
2017-10-13T13:39:19.446Z,8.60
2017-10-13T13:41:47.638Z,8.30
2017-10-13T13:44:15.053Z,7.60
2017-10-13T13:46:42.470Z,7.73
2017-10-13T13:49:09.895Z,8.50
2017-10-13T13:51:37.552Z,7.70
2017-10-13T13:54:04.962Z,8.20
2017-10-13T13:56:32.395Z,8.43
2017-10-13T13:58:59.810Z,9.10
2017-10-13T14:01:27.224Z,9.03
2017-10-13T14:03:54.641Z,8.20
2017-10-13T14:06:22.328Z,9.60
2017-10-13T14:08:49.750Z,8.73
2017-10-13T14:11:17.934Z,8.23
2017-10-13T14:13:45.352Z,9.00
2017-10-13T14:16:13.544Z,8.60
2017-10-13T14:18:41.740Z,8.60
2017-10-13T14:21:09.217Z,7.93
2017-10-13T14:23:37.690Z,8.13
2017-10-13T14:26:05.152Z,8.30
2017-10-13T14:28:33.162Z,8.70
2017-10-13T14:31:00.587Z,9.23
2017-10-13T14:33:28.554Z,8.80
2017-10-13T14:35:55.985Z,8.50
2017-10-13T14:38:23.417Z,8.70
2017-10-13T14:40:52.533Z,8.50
2017-10-13T14:43:19.944Z,8.50
2017-10-13T14:45:47.381Z,8.57
2017-10-13T14:48:14.922Z,9.23
2017-10-13T14:50:42.306Z,8.60
2017-10-13T14:53:09.725Z,8.80
2017-10-13T14:55:37.148Z,7.37
2017-10-13T14:58:05.322Z,8.20
2017-10-13T15:00:33.499Z,7.63
2017-10-13T15:03:01.684Z,7.90
2017-10-13T15:05:29.793Z,8.10
2017-10-13T15:07:57.190Z,8.03
2017-10-13T15:10:25.382Z,8.13
2017-10-13T15:12:53.539Z,8.23
2017-10-13T15:15:22.643Z,8.13
2017-10-13T15:17:51.590Z,9.00
2017-10-13T15:20:19.014Z,8.90
2017-10-13T15:22:46.440Z,7.70
2017-10-13T15:25:20.228Z,8.70
2017-10-13T15:27:53.322Z,8.60
2017-10-13T15:30:26.519Z,9.20
2017-10-13T15:33:00.456Z,8.70
2017-10-13T15:35:33.560Z,8.10
2017-10-13T15:38:06.675Z,9.10
2017-10-13T15:40:39.944Z,9.47
2017-10-13T15:43:13.098Z,8.70
2017-10-13T15:45:47.047Z,8.30
2017-10-13T15:48:20.053Z,8.80
2017-10-13T15:50:53.162Z,8.00
2017-10-13T15:53:20.569Z,9.43
2017-10-13T15:55:47.980Z,9.17
2017-10-13T15:58:16.201Z,8.77
2017-10-13T16:00:43.899Z,8.70
2017-10-13T16:03:11.559Z,9.33
2017-10-13T16:05:38.970Z,8.80
2017-10-13T16:08:06.643Z,8.60
2017-10-13T16:10:34.056Z,8.90
2017-10-13T16:13:02.280Z,8.90
2017-10-13T16:15:29.675Z,9.30
2017-10-13T16:17:57.091Z,9.90
2017-10-13T16:20:24.544Z,9.07
2017-10-13T16:22:51.937Z,8.93
2017-10-13T16:25:19.356Z,9.87
2017-10-13T16:27:46.766Z,10.67
2017-10-13T16:30:14.975Z,10.50
2017-10-13T16:32:42.569Z,10.50
2017-10-13T16:35:09.938Z,11.07
2017-10-13T16:37:37.364Z,10.67
2017-10-13T16:40:04.783Z,10.87
2017-10-13T16:42:32.280Z,11.60
2017-10-13T16:44:59.699Z,11.40
2017-10-13T16:47:27.123Z,11.03
2017-10-13T16:49:54.542Z,11.20
2017-10-13T16:52:22.463Z,11.00
2017-10-13T16:54:50.647Z,11.60
2017-10-13T16:57:18.062Z,11.23
2017-10-13T16:59:45.476Z,10.90
2017-10-13T17:02:13.043Z,12.30
2017-10-13T17:04:41.175Z,12.50
2017-10-13T17:07:08.586Z,13.07
2017-10-13T17:09:36.012Z,13.50
2017-10-13T17:12:04.342Z,13.83
2017-10-13T17:14:31.763Z,12.67
2017-10-13T17:16:59.187Z,13.20
2017-10-13T17:19:27.379Z,14.03
2017-10-13T17:21:54.800Z,13.03
2017-10-13T17:24:22.980Z,13.80
2017-10-13T17:26:51.162Z,17.27
2017-10-13T17:29:18.610Z,16.50
2017-10-13T17:31:46.795Z,17.60
2017-10-13T17:34:14.972Z,16.07
2017-10-13T17:36:42.392Z,17.40
2017-10-13T17:39:09.905Z,16.43
2017-10-13T17:41:37.320Z,15.90
2017-10-13T17:44:05.500Z,17.07
2017-10-13T17:46:33.691Z,16.70
2017-10-13T17:49:01.575Z,17.80
2017-10-13T17:51:28.992Z,18.87
2017-10-13T17:53:57.207Z,19.00
2017-10-13T17:56:25.571Z,18.75
2017-10-13T17:58:53.023Z,18.77
2017-10-13T18:01:20.453Z,17.40
2017-10-13T18:03:47.858Z,18.70
2017-10-13T18:06:15.310Z,19.33
2017-10-13T18:08:42.746Z,19.43
2017-10-13T18:11:10.164Z,19.60
2017-10-13T18:13:37.577Z,19.60
2017-10-13T18:16:05.003Z,19.43
2017-10-13T18:18:33.181Z,22.90
2017-10-13T18:21:00.602Z,21.63
2017-10-13T18:23:28.008Z,21.20
2017-10-13T18:25:55.631Z,21.63
2017-10-13T18:28:23.047Z,22.27
2017-10-13T18:30:50.497Z,24.83
2017-10-13T18:33:17.908Z,23.20
2017-10-13T18:35:46.124Z,22.70
2017-10-13T18:38:13.539Z,21.90
2017-10-13T18:40:41.713Z,21.30
2017-10-13T18:43:09.925Z,23.67
2017-10-13T18:45:37.324Z,23.40
2017-10-13T18:48:05.519Z,24.00
2017-10-13T18:50:33.731Z,23.87
2017-10-13T18:53:01.159Z,24.50
2017-10-13T18:55:28.591Z,24.47
2017-10-13T18:57:56.019Z,24.40
2017-10-13T19:00:23.443Z,23.73
2017-10-13T19:02:50.867Z,23.70
2017-10-13T19:05:19.091Z,25.07
2017-10-13T19:07:46.483Z,23.97
2017-10-13T19:10:14.749Z,23.77
2017-10-13T19:12:42.290Z,22.77
2017-10-13T19:15:09.711Z,24.00
2017-10-13T19:17:37.388Z,24.30
2017-10-13T19:20:04.813Z,24.30
2017-10-13T19:22:32.994Z,24.27
2017-10-13T19:25:00.407Z,24.90
2017-10-13T19:27:27.838Z,24.90
2017-10-13T19:29:56.483Z,25.10
2017-10-13T19:32:24.791Z,25.30
2017-10-13T19:34:52.195Z,26.33
2017-10-13T19:37:19.703Z,25.53
2017-10-13T19:39:47.126Z,26.57
2017-10-13T19:42:15.306Z,26.27
2017-10-13T19:44:42.722Z,25.60
2017-10-13T19:47:10.148Z,25.73
2017-10-13T19:49:38.631Z,27.20
2017-10-13T19:52:06.075Z,27.17
2017-10-13T19:54:33.499Z,29.43
2017-10-13T19:57:01.699Z,28.43
2017-10-13T19:59:29.121Z,28.87
2017-10-13T20:01:57.628Z,27.55
2017-10-13T20:04:25.919Z,29.83
2017-10-13T20:06:53.334Z,31.70
2017-10-13T20:09:21.517Z,30.43
2017-10-13T20:11:49.701Z,30.20
2017-10-13T20:14:17.111Z,29.60
2017-10-13T20:16:44.580Z,32.13
2017-10-13T20:19:12.020Z,28.40
2017-10-13T20:21:39.426Z,31.33
2017-10-13T20:24:07.619Z,32.30
2017-10-13T20:26:35.210Z,31.60
2017-10-13T20:29:02.676Z,34.37
2017-10-13T20:31:30.642Z,32.43
2017-10-13T20:33:58.053Z,31.80
2017-10-13T20:36:25.471Z,32.27
2017-10-13T20:38:53.656Z,31.43
2017-10-13T20:41:21.842Z,32.57
2017-10-13T20:43:50.111Z,33.37
2017-10-13T20:46:18.560Z,34.08
2017-10-13T20:48:46.143Z,38.10
2017-10-13T20:51:13.707Z,35.70
2017-10-13T20:53:41.899Z,37.27
2017-10-13T20:56:09.327Z,35.20
2017-10-13T20:58:37.547Z,35.27
2017-10-13T21:01:04.987Z,34.40
2017-10-13T21:03:33.028Z,34.60
2017-10-13T21:06:01.215Z,35.87
2017-10-13T21:08:29.406Z,35.00
2017-10-13T21:10:56.838Z,34.97
2017-10-13T21:13:25.051Z,33.07
2017-10-13T21:15:52.456Z,34.00
2017-10-13T21:18:19.967Z,34.43
2017-10-13T21:20:48.383Z,33.57
2017-10-13T21:23:15.813Z,31.80
2017-10-13T21:25:43.258Z,31.37
2017-10-13T21:28:10.651Z,32.10
2017-10-13T21:30:38.068Z,31.40
2017-10-13T21:33:05.488Z,30.77
2017-10-13T21:35:33.702Z,31.20
2017-10-13T21:38:01.123Z,30.13
2017-10-13T21:40:29.338Z,31.40
2017-10-13T21:42:56.742Z,30.97
2017-10-13T21:45:24.958Z,30.93
2017-10-13T21:47:52.368Z,31.40
2017-10-13T21:50:19.782Z,32.60
2017-10-13T21:52:47.242Z,33.73
2017-10-13T21:55:14.668Z,34.83
2017-10-13T21:57:42.083Z,33.97
2017-10-13T22:00:10.292Z,33.20
2017-10-13T22:02:37.749Z,33.67
2017-10-13T22:05:06.843Z,33.93
2017-10-13T22:07:34.999Z,34.77
2017-10-13T22:10:04.181Z,33.07
2017-10-13T22:12:31.606Z,34.37
2017-10-13T22:14:59.833Z,35.60
2017-10-13T22:17:29.717Z,35.43
2017-10-13T22:19:57.118Z,35.50
2017-10-13T22:22:24.567Z,33.83
2017-10-13T22:24:52.755Z,32.87
2017-10-13T22:27:20.182Z,31.10
2017-10-13T22:29:48.389Z,29.87
2017-10-13T22:32:15.881Z,28.03
2017-10-13T22:34:43.368Z,28.57
2017-10-13T22:37:10.783Z,27.00
2017-10-13T22:39:38.221Z,27.40
2017-10-13T22:42:05.697Z,26.70
2017-10-13T22:44:33.746Z,26.03
2017-10-13T22:47:01.179Z,24.77
2017-10-13T22:49:30.391Z,24.77
2017-10-13T22:51:57.814Z,24.20
2017-10-13T22:54:26.050Z,24.70
2017-10-13T22:56:53.458Z,23.53
2017-10-13T22:59:21.638Z,23.43
2017-10-13T23:01:49.074Z,24.60
2017-10-13T23:04:17.262Z,23.90
2017-10-13T23:06:44.741Z,24.73
2017-10-13T23:09:12.159Z,23.70
2017-10-13T23:11:39.583Z,22.73
2017-10-13T23:14:07.024Z,22.60
2017-10-13T23:16:34.425Z,22.53
2017-10-13T23:19:02.748Z,22.00
2017-10-13T23:21:31.091Z,22.02
2017-10-13T23:23:59.285Z,21.03
2017-10-13T23:26:26.716Z,21.07
2017-10-13T23:28:54.923Z,21.93
2017-10-13T23:31:22.340Z,20.73
2017-10-13T23:33:49.763Z,22.03
2017-10-13T23:36:17.379Z,21.20
2017-10-13T23:38:45.679Z,21.07
2017-10-13T23:41:13.083Z,19.90
2017-10-13T23:43:40.596Z,20.67
2017-10-13T23:46:08.003Z,20.50
2017-10-13T23:48:36.219Z,20.30
2017-10-13T23:51:03.638Z,19.93
2017-10-13T23:53:31.849Z,19.83
2017-10-13T23:55:59.241Z,20.70
2017-10-13T23:58:26.658Z,20.10
